createdAt,value
2022-10-13T00:04:31.808Z,13.06
2022-10-13T00:09:34.601Z,13.10
2022-10-13T00:14:37.285Z,15.18
2022-10-13T00:19:39.966Z,15.02
2022-10-13T00:24:42.753Z,13.17
2022-10-13T00:29:46.057Z,13.01
2022-10-13T00:34:50.423Z,14.93
2022-10-13T00:39:53.270Z,14.88
2022-10-13T00:45:05.331Z,12.94
2022-10-13T00:50:13.400Z,12.72
2022-10-13T00:55:21.215Z,14.61
2022-10-13T01:00:24.529Z,14.48
2022-10-13T01:05:28.712Z,12.52
2022-10-13T01:10:59.363Z,12.50
2022-10-13T01:16:20.490Z,14.38
2022-10-13T01:21:35.187Z,14.04
2022-10-13T01:27:14.904Z,12.03
2022-10-13T01:32:49.063Z,12.19
2022-10-13T01:37:57.622Z,14.03
2022-10-13T01:43:10.790Z,13.76
2022-10-13T01:48:16.245Z,11.71
2022-10-13T01:53:20.606Z,11.87
2022-10-13T01:58:27.295Z,13.78
2022-10-13T02:03:51.147Z,14.07
2022-10-13T02:09:03.822Z,11.81
2022-10-13T02:14:12.850Z,11.55
2022-10-13T02:19:18.429Z,13.64
2022-10-13T02:24:21.215Z,13.60
2022-10-13T02:29:24.913Z,11.69
2022-10-13T02:34:27.608Z,12.35
2022-10-13T02:39:30.336Z,14.18
2022-10-13T02:44:33.120Z,13.44
2022-10-13T02:49:35.908Z,11.80
2022-10-13T02:54:38.652Z,13.13
2022-10-13T02:59:41.381Z,14.18
2022-10-13T03:04:44.306Z,12.51
2022-10-13T03:09:46.980Z,12.18
2022-10-13T03:14:49.697Z,14.27
2022-10-13T03:19:52.727Z,13.60
2022-10-13T03:24:55.612Z,11.78
2022-10-13T03:29:58.425Z,11.84
2022-10-13T03:35:01.084Z,13.97
2022-10-13T03:40:04.642Z,13.84
2022-10-13T03:45:08.597Z,11.97
2022-10-13T03:50:11.438Z,12.44
2022-10-13T03:55:14.151Z,14.31
2022-10-13T04:00:17.091Z,13.30
2022-10-13T04:05:19.812Z,11.61
2022-10-13T04:10:22.526Z,12.48
2022-10-13T04:15:25.608Z,14.20
2022-10-13T04:20:28.396Z,13.32
2022-10-13T04:25:31.240Z,11.74
2022-10-13T04:30:35.124Z,13.05
2022-10-13T04:35:44.370Z,14.29
2022-10-13T04:40:47.142Z,12.63
2022-10-13T04:45:49.830Z,12.26
2022-10-13T04:51:04.841Z,14.19
2022-10-13T04:56:10.746Z,13.73
2022-10-13T05:01:21.386Z,12.02
2022-10-13T05:06:27.591Z,12.84
2022-10-13T05:11:31.312Z,14.55
2022-10-13T05:16:34.133Z,13.35
2022-10-13T05:21:36.810Z,11.89
2022-10-13T05:26:40.294Z,13.29
2022-10-13T05:31:43.137Z,14.69
2022-10-13T05:36:45.816Z,13.27
2022-10-13T05:41:48.514Z,11.99
2022-10-13T05:46:51.297Z,13.51
2022-10-13T05:51:57.594Z,15.18
2022-10-13T05:57:04.969Z,14.05
2022-10-13T06:02:11.958Z,12.38
2022-10-13T06:07:16.583Z,13.00
2022-10-13T06:12:19.955Z,14.97
2022-10-13T06:17:23.048Z,14.59
2022-10-13T06:22:29.873Z,13.01
2022-10-13T06:27:36.216Z,13.29
2022-10-13T06:32:38.905Z,15.35
2022-10-13T06:37:41.760Z,14.51
2022-10-13T06:42:50.005Z,13.17
2022-10-13T06:47:55.231Z,13.47
2022-10-13T06:52:58.276Z,15.68
2022-10-13T06:58:03.543Z,15.10
2022-10-13T07:03:14.987Z,13.84
2022-10-13T07:08:20.588Z,14.24
2022-10-13T07:13:23.679Z,16.25
2022-10-13T07:18:27.000Z,15.28
2022-10-13T07:23:29.860Z,14.39
2022-10-13T07:28:32.655Z,13.94
2022-10-13T07:33:35.401Z,14.69
2022-10-13T07:38:38.204Z,16.32
2022-10-13T07:43:41.351Z,15.25
2022-10-13T07:48:44.615Z,14.64
2022-10-13T07:53:50.906Z,14.41
2022-10-13T07:58:53.822Z,14.47
2022-10-13T08:03:56.997Z,14.75
2022-10-13T08:09:00.797Z,16.70
2022-10-13T08:14:04.266Z,18.86
2022-10-13T08:19:07.042Z,19.14
2022-10-13T08:24:12.856Z,19.96
2022-10-13T08:29:21.829Z,21.72
2022-10-13T08:34:25.807Z,23.23
2022-10-13T08:39:31.469Z,24.23
2022-10-13T08:50:19.511Z,25.05
2022-10-13T08:55:32.638Z,24.23
2022-10-13T09:00:37.535Z,22.21
2022-10-13T09:05:57.093Z,20.28
2022-10-13T09:11:00.199Z,18.67
2022-10-13T09:16:05.148Z,17.63
2022-10-13T09:21:19.944Z,16.91
2022-10-13T09:26:26.030Z,16.34
2022-10-13T09:31:30.706Z,16.00
2022-10-13T09:36:34.905Z,15.80
2022-10-13T09:41:40.239Z,15.67
2022-10-13T09:46:51.831Z,15.53
2022-10-13T09:52:21.687Z,15.38
2022-10-13T09:57:48.285Z,15.23
2022-10-13T10:03:10.836Z,15.11
2022-10-13T10:09:04.068Z,15.03
2022-10-13T10:14:25.565Z,14.96
2022-10-13T10:20:06.374Z,15.08
2022-10-13T10:25:20.847Z,15.10
2022-10-13T10:30:28.161Z,15.00
2022-10-13T10:35:55.939Z,14.96
2022-10-13T10:41:07.638Z,14.94
2022-10-13T10:46:23.514Z,15.02
2022-10-13T10:51:35.786Z,15.15
2022-10-13T10:56:47.828Z,15.29
2022-10-13T11:02:16.314Z,15.44
2022-10-13T11:07:22.643Z,15.60
2022-10-13T11:12:45.299Z,15.72
2022-10-13T11:17:51.100Z,15.74
2022-10-13T11:23:00.017Z,15.76
2022-10-13T11:28:21.590Z,15.69
2022-10-13T11:33:57.015Z,15.80
2022-10-13T11:39:09.743Z,15.84
2022-10-13T11:44:34.873Z,15.74
2022-10-13T11:49:59.377Z,15.74
2022-10-13T11:55:12.039Z,15.78
2022-10-13T12:00:18.542Z,15.89
2022-10-13T12:05:25.784Z,16.13
2022-10-13T12:10:33.263Z,16.12
2022-10-13T12:15:40.144Z,15.98
2022-10-13T12:20:42.814Z,16.05
2022-10-13T12:25:48.911Z,16.07
2022-10-13T12:30:57.523Z,15.84
2022-10-13T12:36:17.339Z,15.58
2022-10-13T12:41:26.028Z,15.44
2022-10-13T12:46:43.770Z,15.40
2022-10-13T12:51:50.484Z,15.40
2022-10-13T12:56:57.340Z,15.36
2022-10-13T13:02:01.714Z,15.29
2022-10-13T13:07:06.101Z,15.27
2022-10-13T13:12:08.989Z,15.23
2022-10-13T13:17:52.942Z,15.16
2022-10-13T13:22:48.527Z,15.11
2022-10-13T13:27:52.042Z,15.04
2022-10-13T13:32:55.457Z,14.99
2022-10-13T13:37:58.660Z,14.92
2022-10-13T13:43:01.841Z,14.83
2022-10-13T13:48:04.925Z,14.76
2022-10-13T13:53:08.086Z,14.65
2022-10-13T13:58:10.942Z,14.55
2022-10-13T14:03:18.489Z,14.44
2022-10-13T14:08:22.210Z,14.33
2022-10-13T14:13:25.111Z,14.22
2022-10-13T14:18:28.099Z,14.12
2022-10-13T14:23:30.866Z,14.04
2022-10-13T14:28:33.690Z,13.96
2022-10-13T14:33:37.170Z,13.87
2022-10-13T14:38:40.318Z,13.78
2022-10-13T14:43:43.596Z,13.67
2022-10-13T14:48:46.604Z,13.56
2022-10-13T14:53:49.350Z,13.45
2022-10-13T14:58:54.694Z,13.32
2022-10-13T15:03:57.822Z,13.19
2022-10-13T15:09:00.709Z,13.04
2022-10-13T15:14:03.931Z,12.89
2022-10-13T15:19:06.684Z,12.74
2022-10-13T15:24:11.552Z,12.59
2022-10-13T15:29:14.202Z,12.44
2022-10-13T15:34:16.894Z,12.28
2022-10-13T15:39:19.719Z,12.11
2022-10-13T15:44:25.807Z,11.94
2022-10-13T15:49:28.575Z,11.74
2022-10-13T15:54:31.732Z,11.54
2022-10-13T15:59:34.459Z,11.34
2022-10-13T16:04:40.300Z,11.13
2022-10-13T16:09:43.829Z,12.05
2022-10-13T16:14:49.021Z,14.81
2022-10-13T16:19:53.633Z,14.67
2022-10-13T16:24:56.522Z,13.10
2022-10-13T16:29:59.434Z,12.19
2022-10-13T16:35:02.183Z,11.57
2022-10-13T16:40:05.241Z,11.11
2022-10-13T16:45:08.328Z,10.74
2022-10-13T16:50:11.124Z,11.64
2022-10-13T16:55:15.899Z,14.37
2022-10-13T17:00:18.932Z,14.02
2022-10-13T17:05:22.928Z,12.44
2022-10-13T17:10:26.407Z,11.51
2022-10-13T17:15:29.216Z,10.87
2022-10-13T17:20:31.916Z,11.59
2022-10-13T17:25:34.756Z,14.07
2022-10-13T17:30:37.496Z,13.51
2022-10-13T17:35:40.378Z,11.91
2022-10-13T17:40:44.800Z,10.97
2022-10-13T17:45:47.515Z,11.49
2022-10-13T17:50:51.552Z,13.96
2022-10-13T17:56:03.250Z,13.15
2022-10-13T18:01:17.143Z,11.56
2022-10-13T18:06:20.440Z,10.67
2022-10-13T18:11:24.740Z,11.44
2022-10-13T18:16:27.595Z,14.18
2022-10-13T18:21:30.368Z,12.85
2022-10-13T18:26:36.494Z,11.30
2022-10-13T18:31:40.672Z,10.49
2022-10-13T18:36:49.643Z,12.66
2022-10-13T18:41:54.761Z,13.78
2022-10-13T18:46:57.588Z,11.84
2022-10-13T18:52:01.742Z,10.68
2022-10-13T18:57:04.571Z,11.32
2022-10-13T19:02:07.805Z,14.00
2022-10-13T19:07:10.609Z,12.70
2022-10-13T19:12:13.321Z,11.09
2022-10-13T19:17:17.526Z,10.18
2022-10-13T19:22:20.486Z,10.94
2022-10-13T19:27:24.229Z,13.77
2022-10-13T19:32:27.628Z,12.70
2022-10-13T19:37:32.306Z,11.02
2022-10-13T19:42:35.651Z,10.04
2022-10-13T19:47:38.911Z,10.81
2022-10-13T19:52:42.426Z,13.64
2022-10-13T19:57:45.161Z,12.67
2022-10-13T20:02:47.873Z,10.86
2022-10-13T20:07:50.726Z,11.18
2022-10-13T20:12:53.458Z,13.61
2022-10-13T20:17:56.194Z,12.20
2022-10-13T20:22:58.912Z,10.65
2022-10-13T20:28:02.078Z,11.03
2022-10-13T20:33:04.733Z,13.38
2022-10-13T20:38:08.089Z,12.34
2022-10-13T20:43:10.879Z,10.79
2022-10-13T20:48:13.634Z,10.96
2022-10-13T20:53:16.353Z,13.24
2022-10-13T20:58:19.116Z,12.86
2022-10-13T21:03:23.366Z,11.11
2022-10-13T21:08:26.063Z,11.38
2022-10-13T21:13:31.592Z,13.62
2022-10-13T21:18:34.965Z,12.37
2022-10-13T21:23:38.922Z,10.86
2022-10-13T21:28:42.256Z,11.43
2022-10-13T21:33:45.444Z,13.84
2022-10-13T21:38:51.670Z,12.57
2022-10-13T21:43:54.995Z,11.07
2022-10-13T21:49:02.978Z,11.22
2022-10-13T21:54:09.214Z,13.46
2022-10-13T21:59:13.044Z,12.98
2022-10-13T22:04:15.753Z,11.28
2022-10-13T22:09:18.808Z,10.31
2022-10-13T22:14:21.586Z,10.79
2022-10-13T22:19:24.639Z,13.15
2022-10-13T22:24:27.355Z,13.19
2022-10-13T22:29:30.074Z,11.42
2022-10-13T22:34:32.759Z,10.34
2022-10-13T22:39:35.434Z,10.65
2022-10-13T22:44:38.372Z,12.95
2022-10-13T22:49:41.059Z,13.19
2022-10-13T22:54:43.753Z,11.38
2022-10-13T22:59:46.601Z,10.29
2022-10-13T23:04:49.610Z,11.06
2022-10-13T23:09:52.415Z,13.29
2022-10-13T23:14:55.150Z,13.10
2022-10-13T23:19:57.871Z,11.37
2022-10-13T23:25:01.083Z,11.30
2022-10-13T23:30:06.495Z,13.43
2022-10-13T23:35:09.354Z,13.01
2022-10-13T23:40:12.806Z,11.25
2022-10-13T23:45:15.707Z,11.18
2022-10-13T23:50:18.388Z,13.30
2022-10-13T23:55:21.076Z,13.02
